sensor_id;sensor_type;location;lat;lon;timestamp;P1;durP1;ratioP1;P2;durP2;ratioP2
74309;SDS011;62722;51.142;17.052;2022-12-24T00:01:03;26.90;;;13.45;;
74309;SDS011;62722;51.142;17.052;2022-12-24T00:03:31;25.77;;;13.25;;
74309;SDS011;62722;51.142;17.052;2022-12-24T00:06:02;28.58;;;13.35;;
74309;SDS011;62722;51.142;17.052;2022-12-24T00:08:30;23.83;;;13.40;;
74309;SDS011;62722;51.142;17.052;2022-12-24T00:10:57;26.50;;;14.23;;
74309;SDS011;62722;51.142;17.052;2022-12-24T00:13:25;28.05;;;13.98;;
74309;SDS011;62722;51.142;17.052;2022-12-24T00:15:52;34.10;;;15.25;;
74309;SDS011;62722;51.142;17.052;2022-12-24T00:18:19;30.25;;;15.63;;
74309;SDS011;62722;51.142;17.052;2022-12-24T00:20:47;29.60;;;15.52;;
74309;SDS011;62722;51.142;17.052;2022-12-24T00:23:15;25.65;;;14.15;;
74309;SDS011;62722;51.142;17.052;2022-12-24T00:25:43;28.10;;;14.25;;
74309;SDS011;62722;51.142;17.052;2022-12-24T00:28:11;26.50;;;13.00;;
74309;SDS011;62722;51.142;17.052;2022-12-24T00:30:40;28.50;;;13.50;;
74309;SDS011;62722;51.142;17.052;2022-12-24T00:33:08;22.88;;;13.07;;
74309;SDS011;62722;51.142;17.052;2022-12-24T00:35:36;24.05;;;11.93;;
74309;SDS011;62722;51.142;17.052;2022-12-24T00:38:05;26.50;;;12.63;;
74309;SDS011;62722;51.142;17.052;2022-12-24T00:40:34;27.35;;;13.35;;
74309;SDS011;62722;51.142;17.052;2022-12-24T00:43:01;22.27;;;12.00;;
74309;SDS011;62722;51.142;17.052;2022-12-24T00:45:29;23.75;;;11.77;;
74309;SDS011;62722;51.142;17.052;2022-12-24T00:47:56;28.50;;;12.85;;
74309;SDS011;62722;51.142;17.052;2022-12-24T00:50:23;28.85;;;14.43;;
74309;SDS011;62722;51.142;17.052;2022-12-24T00:52:51;25.38;;;12.07;;
74309;SDS011;62722;51.142;17.052;2022-12-24T00:55:18;24.23;;;12.35;;
74309;SDS011;62722;51.142;17.052;2022-12-24T00:57:46;27.92;;;14.45;;
74309;SDS011;62722;51.142;17.052;2022-12-24T01:00:13;21.27;;;11.48;;
74309;SDS011;62722;51.142;17.052;2022-12-24T01:02:42;23.73;;;11.40;;
74309;SDS011;62722;51.142;17.052;2022-12-24T01:05:09;24.48;;;12.48;;
74309;SDS011;62722;51.142;17.052;2022-12-24T01:07:37;22.48;;;11.55;;
74309;SDS011;62722;51.142;17.052;2022-12-24T01:10:06;23.52;;;11.60;;
74309;SDS011;62722;51.142;17.052;2022-12-24T01:12:34;26.40;;;11.95;;
74309;SDS011;62722;51.142;17.052;2022-12-24T01:15:03;27.55;;;12.77;;
74309;SDS011;62722;51.142;17.052;2022-12-24T01:17:31;26.05;;;13.80;;
74309;SDS011;62722;51.142;17.052;2022-12-24T01:19:59;29.27;;;15.02;;
74309;SDS011;62722;51.142;17.052;2022-12-24T01:22:27;27.65;;;14.07;;
74309;SDS011;62722;51.142;17.052;2022-12-24T01:24:54;29.30;;;13.73;;
74309;SDS011;62722;51.142;17.052;2022-12-24T01:27:22;25.38;;;13.15;;
74309;SDS011;62722;51.142;17.052;2022-12-24T01:29:49;24.25;;;13.15;;
74309;SDS011;62722;51.142;17.052;2022-12-24T01:32:17;25.08;;;12.73;;
74309;SDS011;62722;51.142;17.052;2022-12-24T01:34:44;25.67;;;13.43;;
74309;SDS011;62722;51.142;17.052;2022-12-24T01:37:12;22.52;;;12.05;;
74309;SDS011;62722;51.142;17.052;2022-12-24T01:39:39;25.75;;;12.70;;
74309;SDS011;62722;51.142;17.052;2022-12-24T01:48:08;31.23;;;15.38;;
74309;SDS011;62722;51.142;17.052;2022-12-24T01:50:41;28.83;;;13.15;;
74309;SDS011;62722;51.142;17.052;2022-12-24T01:53:10;27.92;;;12.70;;
74309;SDS011;62722;51.142;17.052;2022-12-24T01:55:39;24.92;;;12.60;;
74309;SDS011;62722;51.142;17.052;2022-12-24T01:58:07;26.15;;;12.88;;
74309;SDS011;62722;51.142;17.052;2022-12-24T02:00:36;24.75;;;12.23;;
74309;SDS011;62722;51.142;17.052;2022-12-24T02:03:04;21.83;;;11.27;;
74309;SDS011;62722;51.142;17.052;2022-12-24T02:05:33;27.23;;;13.32;;
74309;SDS011;62722;51.142;17.052;2022-12-24T02:08:08;26.58;;;13.50;;
74309;SDS011;62722;51.142;17.052;2022-12-24T02:10:35;28.02;;;13.93;;
74309;SDS011;62722;51.142;17.052;2022-12-24T02:13:03;28.58;;;13.23;;
74309;SDS011;62722;51.142;17.052;2022-12-24T02:15:33;26.60;;;11.45;;
74309;SDS011;62722;51.142;17.052;2022-12-24T02:18:14;27.48;;;12.75;;
74309;SDS011;62722;51.142;17.052;2022-12-24T02:27:09;21.00;;;10.52;;
74309;SDS011;62722;51.142;17.052;2022-12-24T02:29:49;24.42;;;11.75;;
74309;SDS011;62722;51.142;17.052;2022-12-24T02:32:29;23.42;;;11.82;;
74309;SDS011;62722;51.142;17.052;2022-12-24T02:35:03;24.67;;;11.38;;
74309;SDS011;62722;51.142;17.052;2022-12-24T02:37:36;22.15;;;10.05;;
74309;SDS011;62722;51.142;17.052;2022-12-24T02:40:07;21.40;;;10.75;;
74309;SDS011;62722;51.142;17.052;2022-12-24T02:42:40;20.85;;;10.40;;
74309;SDS011;62722;51.142;17.052;2022-12-24T02:45:12;17.17;;;9.63;;
74309;SDS011;62722;51.142;17.052;2022-12-24T02:47:43;16.45;;;8.73;;
74309;SDS011;62722;51.142;17.052;2022-12-24T02:50:12;19.33;;;9.18;;
74309;SDS011;62722;51.142;17.052;2022-12-24T02:52:41;17.35;;;9.80;;
74309;SDS011;62722;51.142;17.052;2022-12-24T02:55:11;19.08;;;9.75;;
74309;SDS011;62722;51.142;17.052;2022-12-24T02:57:53;16.60;;;8.98;;
74309;SDS011;62722;51.142;17.052;2022-12-24T03:00:51;16.65;;;8.90;;
74309;SDS011;62722;51.142;17.052;2022-12-24T03:03:45;16.92;;;8.27;;
74309;SDS011;62722;51.142;17.052;2022-12-24T03:06:20;16.77;;;8.68;;
74309;SDS011;62722;51.142;17.052;2022-12-24T03:08:56;15.02;;;8.88;;
74309;SDS011;62722;51.142;17.052;2022-12-24T03:11:26;14.65;;;8.38;;
74309;SDS011;62722;51.142;17.052;2022-12-24T03:13:53;15.30;;;7.32;;
74309;SDS011;62722;51.142;17.052;2022-12-24T03:16:26;13.35;;;7.22;;
74309;SDS011;62722;51.142;17.052;2022-12-24T03:18:54;14.00;;;7.97;;
74309;SDS011;62722;51.142;17.052;2022-12-24T03:21:24;15.48;;;7.95;;
74309;SDS011;62722;51.142;17.052;2022-12-24T03:23:54;15.95;;;8.38;;
74309;SDS011;62722;51.142;17.052;2022-12-24T03:26:22;17.73;;;9.02;;
74309;SDS011;62722;51.142;17.052;2022-12-24T03:28:51;13.48;;;7.75;;
74309;SDS011;62722;51.142;17.052;2022-12-24T03:31:19;14.40;;;7.90;;
74309;SDS011;62722;51.142;17.052;2022-12-24T03:33:48;17.35;;;8.55;;
74309;SDS011;62722;51.142;17.052;2022-12-24T03:36:15;12.43;;;8.27;;
74309;SDS011;62722;51.142;17.052;2022-12-24T03:38:42;13.57;;;7.50;;
74309;SDS011;62722;51.142;17.052;2022-12-24T03:41:10;12.68;;;7.57;;
74309;SDS011;62722;51.142;17.052;2022-12-24T03:43:37;14.00;;;7.15;;
74309;SDS011;62722;51.142;17.052;2022-12-24T03:46:04;13.85;;;7.70;;
74309;SDS011;62722;51.142;17.052;2022-12-24T03:48:32;13.75;;;7.53;;
74309;SDS011;62722;51.142;17.052;2022-12-24T03:51:02;13.52;;;7.57;;
74309;SDS011;62722;51.142;17.052;2022-12-24T03:53:30;13.70;;;7.18;;
74309;SDS011;62722;51.142;17.052;2022-12-24T03:55:57;13.73;;;7.38;;
74309;SDS011;62722;51.142;17.052;2022-12-24T03:58:24;13.77;;;6.97;;
74309;SDS011;62722;51.142;17.052;2022-12-24T04:00:52;13.48;;;7.28;;
74309;SDS011;62722;51.142;17.052;2022-12-24T04:03:19;11.50;;;6.00;;
74309;SDS011;62722;51.142;17.052;2022-12-24T04:05:46;8.63;;;4.93;;
74309;SDS011;62722;51.142;17.052;2022-12-24T04:08:15;9.25;;;4.55;;
74309;SDS011;62722;51.142;17.052;2022-12-24T04:10:42;8.38;;;3.85;;
74309;SDS011;62722;51.142;17.052;2022-12-24T04:13:09;8.05;;;3.67;;
74309;SDS011;62722;51.142;17.052;2022-12-24T04:15:37;6.57;;;3.42;;
74309;SDS011;62722;51.142;17.052;2022-12-24T04:18:04;8.10;;;3.22;;
74309;SDS011;62722;51.142;17.052;2022-12-24T04:20:31;7.82;;;3.85;;
74309;SDS011;62722;51.142;17.052;2022-12-24T04:22:58;6.72;;;3.70;;
74309;SDS011;62722;51.142;17.052;2022-12-24T04:25:27;8.52;;;4.05;;
74309;SDS011;62722;51.142;17.052;2022-12-24T04:27:54;9.20;;;3.45;;
74309;SDS011;62722;51.142;17.052;2022-12-24T04:30:21;9.30;;;3.80;;
74309;SDS011;62722;51.142;17.052;2022-12-24T04:32:48;7.30;;;3.58;;
74309;SDS011;62722;51.142;17.052;2022-12-24T04:35:16;8.65;;;4.40;;
74309;SDS011;62722;51.142;17.052;2022-12-24T04:37:43;7.05;;;3.50;;
74309;SDS011;62722;51.142;17.052;2022-12-24T04:40:10;5.97;;;3.58;;
74309;SDS011;62722;51.142;17.052;2022-12-24T04:42:39;7.55;;;3.42;;
74309;SDS011;62722;51.142;17.052;2022-12-24T04:45:06;7.03;;;3.55;;
74309;SDS011;62722;51.142;17.052;2022-12-24T04:47:34;7.72;;;3.83;;
74309;SDS011;62722;51.142;17.052;2022-12-24T04:50:02;6.45;;;3.60;;
74309;SDS011;62722;51.142;17.052;2022-12-24T04:52:29;6.22;;;3.38;;
74309;SDS011;62722;51.142;17.052;2022-12-24T04:54:56;9.20;;;3.95;;
74309;SDS011;62722;51.142;17.052;2022-12-24T04:57:23;6.18;;;3.22;;
74309;SDS011;62722;51.142;17.052;2022-12-24T04:59:52;8.30;;;3.60;;
74309;SDS011;62722;51.142;17.052;2022-12-24T05:02:19;7.88;;;3.60;;
74309;SDS011;62722;51.142;17.052;2022-12-24T05:04:46;8.70;;;3.60;;
74309;SDS011;62722;51.142;17.052;2022-12-24T05:07:13;7.68;;;3.47;;
74309;SDS011;62722;51.142;17.052;2022-12-24T05:09:41;8.77;;;4.07;;
74309;SDS011;62722;51.142;17.052;2022-12-24T05:12:08;9.77;;;4.32;;
74309;SDS011;62722;51.142;17.052;2022-12-24T05:14:35;8.35;;;3.88;;
74309;SDS011;62722;51.142;17.052;2022-12-24T05:17:04;7.28;;;2.80;;
74309;SDS011;62722;51.142;17.052;2022-12-24T05:19:31;7.70;;;3.25;;
74309;SDS011;62722;51.142;17.052;2022-12-24T05:21:58;6.22;;;3.00;;
74309;SDS011;62722;51.142;17.052;2022-12-24T05:24:45;9.25;;;3.13;;
74309;SDS011;62722;51.142;17.052;2022-12-24T05:27:30;5.63;;;2.85;;
74309;SDS011;62722;51.142;17.052;2022-12-24T05:29:58;5.68;;;2.80;;
74309;SDS011;62722;51.142;17.052;2022-12-24T05:32:26;6.10;;;2.95;;
74309;SDS011;62722;51.142;17.052;2022-12-24T05:34:54;5.57;;;2.85;;
74309;SDS011;62722;51.142;17.052;2022-12-24T05:37:21;7.05;;;2.47;;
74309;SDS011;62722;51.142;17.052;2022-12-24T05:39:48;7.63;;;2.70;;
74309;SDS011;62722;51.142;17.052;2022-12-24T05:42:15;5.43;;;2.35;;
74309;SDS011;62722;51.142;17.052;2022-12-24T05:44:43;4.85;;;2.58;;
74309;SDS011;62722;51.142;17.052;2022-12-24T05:47:10;6.72;;;3.28;;
74309;SDS011;62722;51.142;17.052;2022-12-24T05:49:38;6.40;;;3.08;;
74309;SDS011;62722;51.142;17.052;2022-12-24T05:52:05;6.07;;;3.03;;
74309;SDS011;62722;51.142;17.052;2022-12-24T05:54:32;8.40;;;3.35;;
74309;SDS011;62722;51.142;17.052;2022-12-24T05:56:59;7.78;;;3.38;;
74309;SDS011;62722;51.142;17.052;2022-12-24T05:59:27;7.70;;;3.17;;
74309;SDS011;62722;51.142;17.052;2022-12-24T06:01:54;5.28;;;2.95;;
74309;SDS011;62722;51.142;17.052;2022-12-24T06:04:21;7.90;;;4.18;;
74309;SDS011;62722;51.142;17.052;2022-12-24T06:06:50;6.45;;;3.33;;
74309;SDS011;62722;51.142;17.052;2022-12-24T06:09:17;8.35;;;4.68;;
74309;SDS011;62722;51.142;17.052;2022-12-24T06:11:44;7.82;;;4.50;;
74309;SDS011;62722;51.142;17.052;2022-12-24T06:14:11;7.95;;;4.75;;
74309;SDS011;62722;51.142;17.052;2022-12-24T06:16:39;7.20;;;3.85;;
74309;SDS011;62722;51.142;17.052;2022-12-24T06:19:06;8.07;;;3.60;;
74309;SDS011;62722;51.142;17.052;2022-12-24T06:21:33;6.55;;;3.42;;
74309;SDS011;62722;51.142;17.052;2022-12-24T06:24:02;5.32;;;3.33;;
74309;SDS011;62722;51.142;17.052;2022-12-24T06:26:29;9.43;;;3.50;;
74309;SDS011;62722;51.142;17.052;2022-12-24T06:28:57;8.20;;;3.15;;
74309;SDS011;62722;51.142;17.052;2022-12-24T06:31:24;7.03;;;3.35;;
74309;SDS011;62722;51.142;17.052;2022-12-24T06:33:51;9.70;;;3.63;;
74309;SDS011;62722;51.142;17.052;2022-12-24T06:36:19;7.55;;;3.70;;
74309;SDS011;62722;51.142;17.052;2022-12-24T06:38:48;5.43;;;2.85;;
74309;SDS011;62722;51.142;17.052;2022-12-24T06:41:17;7.25;;;2.85;;
74309;SDS011;62722;51.142;17.052;2022-12-24T06:43:46;8.68;;;3.50;;
74309;SDS011;62722;51.142;17.052;2022-12-24T06:46:15;6.18;;;3.38;;
74309;SDS011;62722;51.142;17.052;2022-12-24T06:48:43;8.35;;;3.35;;
74309;SDS011;62722;51.142;17.052;2022-12-24T06:51:11;7.15;;;3.28;;
74309;SDS011;62722;51.142;17.052;2022-12-24T06:53:39;6.80;;;3.20;;
74309;SDS011;62722;51.142;17.052;2022-12-24T06:56:07;6.75;;;3.47;;
74309;SDS011;62722;51.142;17.052;2022-12-24T06:58:37;6.38;;;3.38;;
74309;SDS011;62722;51.142;17.052;2022-12-24T07:01:06;5.20;;;2.65;;
74309;SDS011;62722;51.142;17.052;2022-12-24T07:03:35;6.82;;;3.00;;
74309;SDS011;62722;51.142;17.052;2022-12-24T07:06:02;6.53;;;3.03;;
74309;SDS011;62722;51.142;17.052;2022-12-24T07:08:29;4.15;;;2.75;;
74309;SDS011;62722;51.142;17.052;2022-12-24T07:10:58;6.93;;;3.38;;
74309;SDS011;62722;51.142;17.052;2022-12-24T07:13:26;7.32;;;2.95;;
74309;SDS011;62722;51.142;17.052;2022-12-24T07:15:57;8.05;;;2.85;;
74309;SDS011;62722;51.142;17.052;2022-12-24T07:18:26;5.28;;;3.28;;
74309;SDS011;62722;51.142;17.052;2022-12-24T07:20:53;8.20;;;3.70;;
74309;SDS011;62722;51.142;17.052;2022-12-24T07:23:21;5.55;;;2.90;;
74309;SDS011;62722;51.142;17.052;2022-12-24T07:25:48;5.85;;;2.60;;
74309;SDS011;62722;51.142;17.052;2022-12-24T07:28:15;4.18;;;2.60;;
74309;SDS011;62722;51.142;17.052;2022-12-24T07:30:42;4.85;;;2.50;;
74309;SDS011;62722;51.142;17.052;2022-12-24T07:33:11;4.18;;;2.40;;
74309;SDS011;62722;51.142;17.052;2022-12-24T07:35:38;6.70;;;2.42;;
74309;SDS011;62722;51.142;17.052;2022-12-24T07:38:05;5.45;;;2.72;;
74309;SDS011;62722;51.142;17.052;2022-12-24T07:40:32;6.40;;;2.92;;
74309;SDS011;62722;51.142;17.052;2022-12-24T07:43:00;6.35;;;2.83;;
74309;SDS011;62722;51.142;17.052;2022-12-24T07:45:27;5.53;;;2.95;;
74309;SDS011;62722;51.142;17.052;2022-12-24T07:47:54;5.43;;;2.80;;
74309;SDS011;62722;51.142;17.052;2022-12-24T07:50:22;5.63;;;2.95;;
74309;SDS011;62722;51.142;17.052;2022-12-24T07:52:50;5.50;;;3.13;;
74309;SDS011;62722;51.142;17.052;2022-12-24T07:55:17;6.40;;;3.33;;
74309;SDS011;62722;51.142;17.052;2022-12-24T07:57:44;5.85;;;3.42;;
74309;SDS011;62722;51.142;17.052;2022-12-24T08:00:12;6.28;;;4.05;;
74309;SDS011;62722;51.142;17.052;2022-12-24T08:02:40;7.03;;;3.72;;
74309;SDS011;62722;51.142;17.052;2022-12-24T08:05:07;6.90;;;4.40;;
74309;SDS011;62722;51.142;17.052;2022-12-24T08:07:36;7.93;;;4.40;;
74309;SDS011;62722;51.142;17.052;2022-12-24T08:10:03;10.88;;;5.28;;
74309;SDS011;62722;51.142;17.052;2022-12-24T08:12:31;8.27;;;4.75;;
74309;SDS011;62722;51.142;17.052;2022-12-24T08:14:58;9.68;;;5.15;;
74309;SDS011;62722;51.142;17.052;2022-12-24T08:17:26;10.77;;;5.80;;
74309;SDS011;62722;51.142;17.052;2022-12-24T08:19:53;10.13;;;5.38;;
74309;SDS011;62722;51.142;17.052;2022-12-24T08:22:20;11.90;;;5.80;;
74309;SDS011;62722;51.142;17.052;2022-12-24T08:24:49;10.60;;;5.72;;
74309;SDS011;62722;51.142;17.052;2022-12-24T08:27:16;10.32;;;5.68;;
74309;SDS011;62722;51.142;17.052;2022-12-24T08:29:43;10.52;;;5.88;;
74309;SDS011;62722;51.142;17.052;2022-12-24T08:32:10;11.00;;;6.38;;
74309;SDS011;62722;51.142;17.052;2022-12-24T08:34:37;11.52;;;5.95;;
74309;SDS011;62722;51.142;17.052;2022-12-24T08:37:05;12.52;;;6.07;;
74309;SDS011;62722;51.142;17.052;2022-12-24T08:39:32;12.52;;;6.90;;
74309;SDS011;62722;51.142;17.052;2022-12-24T08:42:00;12.77;;;6.97;;
74309;SDS011;62722;51.142;17.052;2022-12-24T08:44:27;13.00;;;7.32;;
74309;SDS011;62722;51.142;17.052;2022-12-24T08:46:55;12.35;;;6.55;;
74309;SDS011;62722;51.142;17.052;2022-12-24T08:49:22;11.75;;;6.35;;
74309;SDS011;62722;51.142;17.052;2022-12-24T08:51:49;13.63;;;6.53;;
74309;SDS011;62722;51.142;17.052;2022-12-24T08:54:16;12.07;;;6.38;;
74309;SDS011;62722;51.142;17.052;2022-12-24T08:56:44;12.57;;;6.20;;
74309;SDS011;62722;51.142;17.052;2022-12-24T08:59:13;11.40;;;6.88;;
74309;SDS011;62722;51.142;17.052;2022-12-24T09:01:40;12.32;;;6.13;;
74309;SDS011;62722;51.142;17.052;2022-12-24T09:04:07;13.35;;;7.03;;
74309;SDS011;62722;51.142;17.052;2022-12-24T09:06:35;11.20;;;5.97;;
74309;SDS011;62722;51.142;17.052;2022-12-24T09:09:02;11.32;;;6.22;;
74309;SDS011;62722;51.142;17.052;2022-12-24T09:11:30;13.45;;;6.53;;
74309;SDS011;62722;51.142;17.052;2022-12-24T09:14:00;11.57;;;6.60;;
74309;SDS011;62722;51.142;17.052;2022-12-24T09:16:28;13.23;;;6.07;;
74309;SDS011;62722;51.142;17.052;2022-12-24T09:18:56;13.88;;;6.80;;
74309;SDS011;62722;51.142;17.052;2022-12-24T09:21:24;11.38;;;5.68;;
74309;SDS011;62722;51.142;17.052;2022-12-24T09:23:51;11.15;;;6.22;;
74309;SDS011;62722;51.142;17.052;2022-12-24T09:26:19;14.32;;;6.65;;
74309;SDS011;62722;51.142;17.052;2022-12-24T09:28:48;11.18;;;5.53;;
74309;SDS011;62722;51.142;17.052;2022-12-24T09:31:16;11.85;;;6.22;;
74309;SDS011;62722;51.142;17.052;2022-12-24T09:33:46;12.68;;;6.90;;
74309;SDS011;62722;51.142;17.052;2022-12-24T09:36:14;12.98;;;6.32;;
74309;SDS011;62722;51.142;17.052;2022-12-24T09:38:41;11.93;;;6.50;;
74309;SDS011;62722;51.142;17.052;2022-12-24T09:41:10;11.30;;;6.28;;
74309;SDS011;62722;51.142;17.052;2022-12-24T09:43:38;12.68;;;6.63;;
74309;SDS011;62722;51.142;17.052;2022-12-24T09:46:12;12.00;;;6.35;;
74309;SDS011;62722;51.142;17.052;2022-12-24T09:48:48;12.25;;;6.25;;
74309;SDS011;62722;51.142;17.052;2022-12-24T09:51:20;10.60;;;4.95;;
74309;SDS011;62722;51.142;17.052;2022-12-24T09:53:55;10.73;;;5.70;;
74309;SDS011;62722;51.142;17.052;2022-12-24T09:56:26;11.02;;;5.85;;
74309;SDS011;62722;51.142;17.052;2022-12-24T09:58:57;11.15;;;5.97;;
74309;SDS011;62722;51.142;17.052;2022-12-24T10:01:28;8.85;;;5.07;;
74309;SDS011;62722;51.142;17.052;2022-12-24T10:03:58;9.18;;;4.85;;
74309;SDS011;62722;51.142;17.052;2022-12-24T10:06:31;9.40;;;4.90;;
74309;SDS011;62722;51.142;17.052;2022-12-24T10:09:08;10.85;;;5.60;;
74309;SDS011;62722;51.142;17.052;2022-12-24T10:11:45;7.80;;;4.82;;
74309;SDS011;62722;51.142;17.052;2022-12-24T10:14:25;8.82;;;5.28;;
74309;SDS011;62722;51.142;17.052;2022-12-24T10:17:08;9.02;;;4.93;;
74309;SDS011;62722;51.142;17.052;2022-12-24T10:19:49;10.90;;;4.95;;
74309;SDS011;62722;51.142;17.052;2022-12-24T10:22:21;9.60;;;5.28;;
74309;SDS011;62722;51.142;17.052;2022-12-24T10:24:59;8.57;;;5.05;;
74309;SDS011;62722;51.142;17.052;2022-12-24T10:27:36;7.15;;;4.32;;
74309;SDS011;62722;51.142;17.052;2022-12-24T10:30:06;8.90;;;4.22;;
74309;SDS011;62722;51.142;17.052;2022-12-24T10:32:40;8.80;;;4.63;;
74309;SDS011;62722;51.142;17.052;2022-12-24T10:35:15;7.10;;;4.20;;
74309;SDS011;62722;51.142;17.052;2022-12-24T10:37:46;7.57;;;3.72;;
74309;SDS011;62722;51.142;17.052;2022-12-24T10:40:16;7.63;;;4.20;;
74309;SDS011;62722;51.142;17.052;2022-12-24T10:42:51;7.85;;;4.10;;
74309;SDS011;62722;51.142;17.052;2022-12-24T10:45:19;7.38;;;4.05;;
74309;SDS011;62722;51.142;17.052;2022-12-24T10:47:50;7.65;;;3.88;;
74309;SDS011;62722;51.142;17.052;2022-12-24T10:50:23;7.05;;;3.78;;
74309;SDS011;62722;51.142;17.052;2022-12-24T10:52:59;8.85;;;3.75;;
74309;SDS011;62722;51.142;17.052;2022-12-24T10:55:32;8.18;;;4.22;;
74309;SDS011;62722;51.142;17.052;2022-12-24T10:58:00;8.93;;;3.95;;
74309;SDS011;62722;51.142;17.052;2022-12-24T11:00:29;6.88;;;3.97;;
74309;SDS011;62722;51.142;17.052;2022-12-24T11:03:06;7.35;;;3.95;;
74309;SDS011;62722;51.142;17.052;2022-12-24T11:05:59;6.75;;;4.10;;
74309;SDS011;62722;51.142;17.052;2022-12-24T11:08:32;8.07;;;4.63;;
74309;SDS011;62722;51.142;17.052;2022-12-24T11:11:00;9.05;;;5.07;;
74309;SDS011;62722;51.142;17.052;2022-12-24T11:13:30;11.85;;;5.78;;
74309;SDS011;62722;51.142;17.052;2022-12-24T11:16:00;8.50;;;6.05;;
74309;SDS011;62722;51.142;17.052;2022-12-24T11:18:30;10.75;;;6.20;;
74309;SDS011;62722;51.142;17.052;2022-12-24T11:21:01;10.40;;;6.40;;
74309;SDS011;62722;51.142;17.052;2022-12-24T11:23:29;13.20;;;6.85;;
74309;SDS011;62722;51.142;17.052;2022-12-24T11:25:56;8.43;;;4.68;;
74309;SDS011;62722;51.142;17.052;2022-12-24T11:28:25;7.00;;;4.00;;
74309;SDS011;62722;51.142;17.052;2022-12-24T11:30:58;5.68;;;3.70;;
74309;SDS011;62722;51.142;17.052;2022-12-24T11:33:28;6.72;;;3.40;;
74309;SDS011;62722;51.142;17.052;2022-12-24T11:36:01;6.10;;;3.33;;
74309;SDS011;62722;51.142;17.052;2022-12-24T11:38:30;11.25;;;5.75;;
74309;SDS011;62722;51.142;17.052;2022-12-24T11:41:00;8.23;;;4.60;;
74309;SDS011;62722;51.142;17.052;2022-12-24T11:43:34;8.88;;;4.80;;
74309;SDS011;62722;51.142;17.052;2022-12-24T11:46:16;9.70;;;4.00;;
74309;SDS011;62722;51.142;17.052;2022-12-24T11:48:46;29.58;;;14.30;;
74309;SDS011;62722;51.142;17.052;2022-12-24T11:51:20;9.02;;;4.95;;
74309;SDS011;62722;51.142;17.052;2022-12-24T11:53:50;9.38;;;5.28;;
74309;SDS011;62722;51.142;17.052;2022-12-24T11:56:27;8.38;;;4.40;;
74309;SDS011;62722;51.142;17.052;2022-12-24T11:59:02;8.90;;;4.93;;
74309;SDS011;62722;51.142;17.052;2022-12-24T12:01:38;10.38;;;4.90;;
74309;SDS011;62722;51.142;17.052;2022-12-24T12:04:14;16.77;;;8.82;;
74309;SDS011;62722;51.142;17.052;2022-12-24T12:06:45;10.45;;;5.45;;
74309;SDS011;62722;51.142;17.052;2022-12-24T12:09:16;10.05;;;4.95;;
74309;SDS011;62722;51.142;17.052;2022-12-24T12:11:47;8.70;;;4.35;;
74309;SDS011;62722;51.142;17.052;2022-12-24T12:14:19;10.95;;;5.28;;
74309;SDS011;62722;51.142;17.052;2022-12-24T12:16:50;9.35;;;4.25;;
74309;SDS011;62722;51.142;17.052;2022-12-24T12:19:31;9.63;;;4.13;;
74309;SDS011;62722;51.142;17.052;2022-12-24T12:22:06;8.82;;;3.83;;
74309;SDS011;62722;51.142;17.052;2022-12-24T12:24:42;12.38;;;4.20;;
74309;SDS011;62722;51.142;17.052;2022-12-24T12:27:18;9.55;;;4.00;;
74309;SDS011;62722;51.142;17.052;2022-12-24T12:29:51;8.63;;;3.63;;
74309;SDS011;62722;51.142;17.052;2022-12-24T12:32:25;6.90;;;3.70;;
74309;SDS011;62722;51.142;17.052;2022-12-24T12:34:58;10.93;;;4.20;;
74309;SDS011;62722;51.142;17.052;2022-12-24T12:37:34;8.32;;;3.95;;
74309;SDS011;62722;51.142;17.052;2022-12-24T12:40:11;8.80;;;3.85;;
74309;SDS011;62722;51.142;17.052;2022-12-24T12:42:40;14.15;;;4.07;;
74309;SDS011;62722;51.142;17.052;2022-12-24T12:45:27;7.90;;;3.05;;
74309;SDS011;62722;51.142;17.052;2022-12-24T12:51:01;9.27;;;3.50;;
74309;SDS011;62722;51.142;17.052;2022-12-24T12:53:38;10.98;;;3.88;;
74309;SDS011;62722;51.142;17.052;2022-12-24T12:56:16;61.08;;;20.00;;
74309;SDS011;62722;51.142;17.052;2022-12-24T12:58:52;10.57;;;3.78;;
74309;SDS011;62722;51.142;17.052;2022-12-24T13:01:26;44.60;;;14.32;;
74309;SDS011;62722;51.142;17.052;2022-12-24T13:07:28;8.98;;;3.63;;
74309;SDS011;62722;51.142;17.052;2022-12-24T13:10:28;13.13;;;4.22;;
74309;SDS011;62722;51.142;17.052;2022-12-24T13:13:24;18.35;;;7.93;;
74309;SDS011;62722;51.142;17.052;2022-12-24T13:16:20;7.63;;;2.65;;
74309;SDS011;62722;51.142;17.052;2022-12-24T13:19:01;13.13;;;5.60;;
74309;SDS011;62722;51.142;17.052;2022-12-24T13:21:40;8.13;;;2.80;;
74309;SDS011;62722;51.142;17.052;2022-12-24T13:24:13;10.02;;;3.03;;
74309;SDS011;62722;51.142;17.052;2022-12-24T13:29:29;6.45;;;2.83;;
74309;SDS011;62722;51.142;17.052;2022-12-24T13:35:28;7.63;;;3.20;;
74309;SDS011;62722;51.142;17.052;2022-12-24T13:44:26;22.98;;;9.38;;
74309;SDS011;62722;51.142;17.052;2022-12-24T13:47:21;16.83;;;6.25;;
74309;SDS011;62722;51.142;17.052;2022-12-24T13:49:51;11.88;;;4.70;;
74309;SDS011;62722;51.142;17.052;2022-12-24T13:52:21;10.32;;;4.35;;
74309;SDS011;62722;51.142;17.052;2022-12-24T13:55:04;16.52;;;5.13;;
74309;SDS011;62722;51.142;17.052;2022-12-24T13:57:38;9.68;;;4.00;;
74309;SDS011;62722;51.142;17.052;2022-12-24T14:00:23;11.85;;;3.53;;
74309;SDS011;62722;51.142;17.052;2022-12-24T14:02:58;14.43;;;4.80;;
74309;SDS011;62722;51.142;17.052;2022-12-24T14:05:31;11.27;;;3.17;;
74309;SDS011;62722;51.142;17.052;2022-12-24T14:08:02;7.75;;;2.95;;
74309;SDS011;62722;51.142;17.052;2022-12-24T14:10:36;8.32;;;2.70;;
74309;SDS011;62722;51.142;17.052;2022-12-24T14:13:46;9.50;;;2.72;;
74309;SDS011;62722;51.142;17.052;2022-12-24T14:16:13;6.93;;;2.92;;
74309;SDS011;62722;51.142;17.052;2022-12-24T14:18:44;10.18;;;3.45;;
74309;SDS011;62722;51.142;17.052;2022-12-24T14:21:14;10.52;;;3.38;;
74309;SDS011;62722;51.142;17.052;2022-12-24T14:23:51;9.00;;;4.30;;
74309;SDS011;62722;51.142;17.052;2022-12-24T14:26:21;16.05;;;5.28;;
74309;SDS011;62722;51.142;17.052;2022-12-24T14:28:55;11.50;;;3.60;;
74309;SDS011;62722;51.142;17.052;2022-12-24T14:31:26;21.40;;;5.22;;
74309;SDS011;62722;51.142;17.052;2022-12-24T14:34:04;11.13;;;3.92;;
74309;SDS011;62722;51.142;17.052;2022-12-24T14:36:32;9.27;;;2.83;;
74309;SDS011;62722;51.142;17.052;2022-12-24T14:39:01;8.45;;;3.17;;
74309;SDS011;62722;51.142;17.052;2022-12-24T14:41:34;9.85;;;3.35;;
74309;SDS011;62722;51.142;17.052;2022-12-24T14:44:13;7.70;;;2.88;;
74309;SDS011;62722;51.142;17.052;2022-12-24T14:46:49;9.15;;;2.63;;
74309;SDS011;62722;51.142;17.052;2022-12-24T14:49:32;7.97;;;2.95;;
74309;SDS011;62722;51.142;17.052;2022-12-24T14:52:05;13.38;;;3.63;;
74309;SDS011;62722;51.142;17.052;2022-12-24T14:54:38;7.97;;;3.22;;
74309;SDS011;62722;51.142;17.052;2022-12-24T14:59:54;9.02;;;3.55;;
74309;SDS011;62722;51.142;17.052;2022-12-24T15:02:28;12.23;;;4.43;;
74309;SDS011;62722;51.142;17.052;2022-12-24T15:05:10;9.23;;;3.63;;
74309;SDS011;62722;51.142;17.052;2022-12-24T15:07:40;9.45;;;3.70;;
74309;SDS011;62722;51.142;17.052;2022-12-24T15:10:21;7.43;;;3.38;;
74309;SDS011;62722;51.142;17.052;2022-12-24T15:12:52;10.32;;;3.05;;
74309;SDS011;62722;51.142;17.052;2022-12-24T15:15:21;10.38;;;3.75;;
74309;SDS011;62722;51.142;17.052;2022-12-24T15:17:50;8.18;;;3.00;;
74309;SDS011;62722;51.142;17.052;2022-12-24T15:20:20;9.15;;;3.70;;